sensor_id;sensor_type;location;lat;lon;timestamp;pressure;altitude;pressure_sealevel;temperature;humidity
67740;BME280;54536;50.090;14.420;2023-01-05T00:01:18;99220.31;;;12.77;60.79
67740;BME280;54536;50.090;14.420;2023-01-05T00:03:52;99228.28;;;12.85;60.73
67740;BME280;54536;50.090;14.420;2023-01-05T00:06:19;99227.31;;;12.86;60.86
67740;BME280;54536;50.090;14.420;2023-01-05T00:08:46;99224.69;;;12.86;60.87
67740;BME280;54536;50.090;14.420;2023-01-05T00:11:15;99226.31;;;12.87;61.12
67740;BME280;54536;50.090;14.420;2023-01-05T00:14:02;99229.47;;;12.91;60.61
67740;BME280;54536;50.090;14.420;2023-01-05T00:16:48;99229.78;;;12.87;60.74
67740;BME280;54536;50.090;14.420;2023-01-05T00:19:34;99214.47;;;12.91;60.53
67740;BME280;54536;50.090;14.420;2023-01-05T00:22:24;99216.44;;;12.89;60.58
67740;BME280;54536;50.090;14.420;2023-01-05T00:25:20;99215.75;;;12.87;61.20
67740;BME280;54536;50.090;14.420;2023-01-05T00:27:46;99210.69;;;12.94;61.14
67740;BME280;54536;50.090;14.420;2023-01-05T00:30:15;99209.81;;;12.85;61.64
67740;BME280;54536;50.090;14.420;2023-01-05T00:32:48;99203.41;;;12.87;61.46
67740;BME280;54536;50.090;14.420;2023-01-05T00:35:15;99195.38;;;12.97;62.13
67740;BME280;54536;50.090;14.420;2023-01-05T00:37:42;99191.22;;;12.95;62.30
67740;BME280;54536;50.090;14.420;2023-01-05T00:40:12;99181.16;;;12.90;62.74
67740;BME280;54536;50.090;14.420;2023-01-05T00:42:45;99185.44;;;12.91;63.03
67740;BME280;54536;50.090;14.420;2023-01-05T00:45:14;99175.56;;;12.93;62.72
67740;BME280;54536;50.090;14.420;2023-01-05T00:47:42;99165.81;;;12.85;62.79
67740;BME280;54536;50.090;14.420;2023-01-05T00:50:11;99185.59;;;12.89;63.56
67740;BME280;54536;50.090;14.420;2023-01-05T00:52:39;99183.97;;;12.88;63.83
67740;BME280;54536;50.090;14.420;2023-01-05T00:55:05;99184.56;;;12.82;64.18
67740;BME280;54536;50.090;14.420;2023-01-05T00:57:38;99182.25;;;12.79;64.70
67740;BME280;54536;50.090;14.420;2023-01-05T01:00:07;99187.56;;;12.87;64.07
67740;BME280;54536;50.090;14.420;2023-01-05T01:02:36;99175.28;;;12.78;64.78
67740;BME280;54536;50.090;14.420;2023-01-05T01:05:04;99186.41;;;12.82;64.77
67740;BME280;54536;50.090;14.420;2023-01-05T01:07:41;99179.50;;;12.63;64.67
67740;BME280;54536;50.090;14.420;2023-01-05T01:10:14;99175.66;;;12.83;64.27
67740;BME280;54536;50.090;14.420;2023-01-05T01:12:41;99176.16;;;12.79;64.73
67740;BME280;54536;50.090;14.420;2023-01-05T01:15:08;99163.28;;;12.76;64.21
67740;BME280;54536;50.090;14.420;2023-01-05T01:17:34;99171.53;;;12.81;64.41
67740;BME280;54536;50.090;14.420;2023-01-05T01:20:01;99162.59;;;12.74;64.19
67740;BME280;54536;50.090;14.420;2023-01-05T01:22:27;99177.22;;;12.68;64.47
67740;BME280;54536;50.090;14.420;2023-01-05T01:24:53;99173.00;;;12.75;63.87
67740;BME280;54536;50.090;14.420;2023-01-05T01:27:19;99168.38;;;12.77;63.76
67740;BME280;54536;50.090;14.420;2023-01-05T01:29:46;99172.34;;;12.81;63.46
67740;BME280;54536;50.090;14.420;2023-01-05T01:32:13;99164.41;;;12.73;62.33
67740;BME280;54536;50.090;14.420;2023-01-05T01:34:45;99167.25;;;12.80;62.23
67740;BME280;54536;50.090;14.420;2023-01-05T01:37:12;99158.69;;;12.86;61.11
67740;BME280;54536;50.090;14.420;2023-01-05T01:39:38;99154.53;;;12.75;60.88
67740;BME280;54536;50.090;14.420;2023-01-05T01:42:08;99164.94;;;12.85;60.25
67740;BME280;54536;50.090;14.420;2023-01-05T01:44:53;99147.34;;;12.94;59.67
67740;BME280;54536;50.090;14.420;2023-01-05T01:47:37;99155.38;;;12.84;59.54
67740;BME280;54536;50.090;14.420;2023-01-05T01:50:15;99164.53;;;12.98;59.42
67740;BME280;54536;50.090;14.420;2023-01-05T01:52:45;99152.63;;;12.94;58.73
67740;BME280;54536;50.090;14.420;2023-01-05T01:55:14;99144.72;;;12.94;58.66
67740;BME280;54536;50.090;14.420;2023-01-05T01:57:43;99152.69;;;13.02;58.26
67740;BME280;54536;50.090;14.420;2023-01-05T02:00:12;99148.88;;;13.04;57.99
67740;BME280;54536;50.090;14.420;2023-01-05T02:02:40;99154.34;;;13.03;58.18
67740;BME280;54536;50.090;14.420;2023-01-05T02:05:10;99171.47;;;12.99;57.83
67740;BME280;54536;50.090;14.420;2023-01-05T02:07:43;99154.81;;;12.98;58.13
67740;BME280;54536;50.090;14.420;2023-01-05T02:10:11;99146.69;;;12.92;57.55
67740;BME280;54536;50.090;14.420;2023-01-05T02:13:15;99137.94;;;12.91;58.12
67740;BME280;54536;50.090;14.420;2023-01-05T02:15:51;99136.78;;;12.94;57.50
67740;BME280;54536;50.090;14.420;2023-01-05T02:18:43;99129.69;;;12.94;57.69
67740;BME280;54536;50.090;14.420;2023-01-05T02:24:16;99142.91;;;12.94;57.81
67740;BME280;54536;50.090;14.420;2023-01-05T02:33:18;99157.03;;;12.85;59.45
67740;BME280;54536;50.090;14.420;2023-01-05T02:36:05;99142.28;;;13.00;58.60
67740;BME280;54536;50.090;14.420;2023-01-05T02:38:42;99132.50;;;12.93;59.33
67740;BME280;54536;50.090;14.420;2023-01-05T02:41:35;99142.59;;;12.97;59.47
67740;BME280;54536;50.090;14.420;2023-01-05T02:44:07;99137.78;;;12.93;59.21
67740;BME280;54536;50.090;14.420;2023-01-05T02:46:36;99137.09;;;12.91;59.14
67740;BME280;54536;50.090;14.420;2023-01-05T02:49:04;99136.84;;;13.02;58.82
67740;BME280;54536;50.090;14.420;2023-01-05T02:51:39;99140.31;;;13.02;59.11
67740;BME280;54536;50.090;14.420;2023-01-05T02:54:17;99143.47;;;13.06;59.12
67740;BME280;54536;50.090;14.420;2023-01-05T03:05:54;99111.09;;;13.04;59.86
67740;BME280;54536;50.090;14.420;2023-01-05T03:08:27;99119.00;;;12.96;60.02
67740;BME280;54536;50.090;14.420;2023-01-05T03:13:46;99122.94;;;12.92;60.80
67740;BME280;54536;50.090;14.420;2023-01-05T03:16:27;99122.66;;;13.03;60.73
67740;BME280;54536;50.090;14.420;2023-01-05T03:19:01;99115.41;;;13.05;61.42
67740;BME280;54536;50.090;14.420;2023-01-05T03:21:50;99115.06;;;13.00;61.08
67740;BME280;54536;50.090;14.420;2023-01-05T03:24:51;99112.22;;;12.93;62.42
67740;BME280;54536;50.090;14.420;2023-01-05T03:27:43;99119.16;;;12.94;61.79
67740;BME280;54536;50.090;14.420;2023-01-05T03:30:38;99107.75;;;12.94;62.10
67740;BME280;54536;50.090;14.420;2023-01-05T03:36:40;99105.50;;;12.99;62.46
67740;BME280;54536;50.090;14.420;2023-01-05T03:39:11;99097.88;;;12.96;62.23
67740;BME280;54536;50.090;14.420;2023-01-05T03:41:41;99106.94;;;12.93;63.09
67740;BME280;54536;50.090;14.420;2023-01-05T03:44:07;99098.41;;;12.99;62.86
67740;BME280;54536;50.090;14.420;2023-01-05T03:46:40;99101.84;;;13.00;62.75
67740;BME280;54536;50.090;14.420;2023-01-05T03:49:06;99094.63;;;13.10;62.33
67740;BME280;54536;50.090;14.420;2023-01-05T03:51:33;99098.09;;;13.02;62.56
67740;BME280;54536;50.090;14.420;2023-01-05T03:53:59;99088.47;;;13.01;62.65
67740;BME280;54536;50.090;14.420;2023-01-05T03:56:27;99086.06;;;13.08;62.05
67740;BME280;54536;50.090;14.420;2023-01-05T03:58:53;99084.06;;;13.02;62.67
67740;BME280;54536;50.090;14.420;2023-01-05T04:01:19;99077.94;;;13.01;62.59
67740;BME280;54536;50.090;14.420;2023-01-05T04:03:52;99069.81;;;12.95;62.42
67740;BME280;54536;50.090;14.420;2023-01-05T04:06:18;99068.38;;;13.00;61.86
67740;BME280;54536;50.090;14.420;2023-01-05T04:08:44;99066.88;;;12.98;61.83
67740;BME280;54536;50.090;14.420;2023-01-05T04:11:16;99075.59;;;12.90;60.93
67740;BME280;54536;50.090;14.420;2023-01-05T04:13:43;99063.91;;;12.93;60.73
67740;BME280;54536;50.090;14.420;2023-01-05T04:16:10;99079.41;;;12.96;59.74
67740;BME280;54536;50.090;14.420;2023-01-05T04:18:36;99064.41;;;13.04;59.48
67740;BME280;54536;50.090;14.420;2023-01-05T04:21:03;99064.59;;;13.03;60.02
67740;BME280;54536;50.090;14.420;2023-01-05T04:23:35;99071.81;;;13.01;60.42
67740;BME280;54536;50.090;14.420;2023-01-05T04:26:02;99069.38;;;13.07;60.33
67740;BME280;54536;50.090;14.420;2023-01-05T04:28:29;99083.44;;;13.08;60.27
67740;BME280;54536;50.090;14.420;2023-01-05T04:30:55;99069.88;;;13.03;60.69
67740;BME280;54536;50.090;14.420;2023-01-05T04:33:22;99066.88;;;12.98;61.25
67740;BME280;54536;50.090;14.420;2023-01-05T04:35:55;99078.66;;;13.11;61.42
67740;BME280;54536;50.090;14.420;2023-01-05T04:38:21;99077.34;;;13.16;61.20
67740;BME280;54536;50.090;14.420;2023-01-05T04:40:50;99082.63;;;13.16;61.32
67740;BME280;54536;50.090;14.420;2023-01-05T04:43:22;99092.16;;;13.08;61.10
67740;BME280;54536;50.090;14.420;2023-01-05T04:45:49;99086.41;;;13.13;61.40
67740;BME280;54536;50.090;14.420;2023-01-05T04:48:16;99083.06;;;13.03;61.74
67740;BME280;54536;50.090;14.420;2023-01-05T04:50:43;99083.06;;;13.03;61.19
67740;BME280;54536;50.090;14.420;2023-01-05T04:53:10;99087.66;;;13.01;62.08
67740;BME280;54536;50.090;14.420;2023-01-05T04:55:36;99093.75;;;13.01;62.12
67740;BME280;54536;50.090;14.420;2023-01-05T04:58:03;99089.28;;;12.94;62.24
67740;BME280;54536;50.090;14.420;2023-01-05T05:00:30;99084.88;;;13.02;61.26
67740;BME280;54536;50.090;14.420;2023-01-05T05:02:57;99091.47;;;12.98;61.77
67740;BME280;54536;50.090;14.420;2023-01-05T05:05:23;99092.59;;;12.96;61.72
67740;BME280;54536;50.090;14.420;2023-01-05T05:07:49;99092.59;;;12.96;61.45
67740;BME280;54536;50.090;14.420;2023-01-05T05:10:16;99092.41;;;12.89;62.28
67740;BME280;54536;50.090;14.420;2023-01-05T05:12:44;99095.75;;;12.99;61.56
67740;BME280;54536;50.090;14.420;2023-01-05T05:15:11;99093.75;;;13.01;61.30
67740;BME280;54536;50.090;14.420;2023-01-05T05:17:37;99088.66;;;12.92;62.11
67740;BME280;54536;50.090;14.420;2023-01-05T05:20:04;99095.72;;;12.91;62.19
67740;BME280;54536;50.090;14.420;2023-01-05T05:22:35;99093.06;;;12.91;61.54
67740;BME280;54536;50.090;14.420;2023-01-05T05:25:02;99096.88;;;12.88;61.65
67740;BME280;54536;50.090;14.420;2023-01-05T05:27:29;99095.19;;;12.87;61.67
67740;BME280;54536;50.090;14.420;2023-01-05T05:29:56;99088.78;;;12.90;61.90
67740;BME280;54536;50.090;14.420;2023-01-05T05:32:22;99087.78;;;12.91;61.57
67740;BME280;54536;50.090;14.420;2023-01-05T05:34:48;99093.25;;;12.98;61.05
67740;BME280;54536;50.090;14.420;2023-01-05T05:37:14;99100.34;;;12.97;61.08
67740;BME280;54536;50.090;14.420;2023-01-05T05:39:47;99110.22;;;12.87;60.95
67740;BME280;54536;50.090;14.420;2023-01-05T05:42:13;99104.78;;;12.88;60.74
67740;BME280;54536;50.090;14.420;2023-01-05T05:44:39;99105.31;;;12.92;60.86
67740;BME280;54536;50.090;14.420;2023-01-05T05:47:06;99102.59;;;12.84;60.23
67740;BME280;54536;50.090;14.420;2023-01-05T05:49:32;99110.25;;;12.95;59.93
67740;BME280;54536;50.090;14.420;2023-01-05T05:51:59;99116.78;;;12.83;59.63
67740;BME280;54536;50.090;14.420;2023-01-05T05:54:25;99111.09;;;13.04;59.52
67740;BME280;54536;50.090;14.420;2023-01-05T05:56:51;99124.41;;;12.94;59.49
67740;BME280;54536;50.090;14.420;2023-01-05T05:59:17;99128.53;;;12.88;59.25
67740;BME280;54536;50.090;14.420;2023-01-05T06:01:44;99128.25;;;13.00;58.89
67740;BME280;54536;50.090;14.420;2023-01-05T06:04:10;99135.19;;;13.01;58.88
67740;BME280;54536;50.090;14.420;2023-01-05T06:06:37;99142.44;;;12.99;58.33
67740;BME280;54536;50.090;14.420;2023-01-05T06:09:10;99137.63;;;12.94;58.33
67740;BME280;54536;50.090;14.420;2023-01-05T06:11:37;99142.25;;;12.92;57.38
67740;BME280;54536;50.090;14.420;2023-01-05T06:14:03;99144.88;;;12.92;56.96
67740;BME280;54536;50.090;14.420;2023-01-05T06:16:29;99147.88;;;12.97;57.16
67740;BME280;54536;50.090;14.420;2023-01-05T06:18:56;99145.09;;;13.07;57.03
67740;BME280;54536;50.090;14.420;2023-01-05T06:21:22;99147.22;;;13.03;56.74
67740;BME280;54536;50.090;14.420;2023-01-05T06:23:48;99143.72;;;12.95;56.68
67740;BME280;54536;50.090;14.420;2023-01-05T06:26:14;99143.28;;;13.07;55.94
67740;BME280;54536;50.090;14.420;2023-01-05T06:28:43;99155.31;;;13.02;55.79
67740;BME280;54536;50.090;14.420;2023-01-05T06:31:09;99152.88;;;13.08;55.53
67740;BME280;54536;50.090;14.420;2023-01-05T06:33:47;99149.88;;;13.03;54.87
67740;BME280;54536;50.090;14.420;2023-01-05T06:36:19;99151.41;;;13.14;54.47
67740;BME280;54536;50.090;14.420;2023-01-05T06:38:47;99150.69;;;13.04;54.23
67740;BME280;54536;50.090;14.420;2023-01-05T06:41:13;99153.38;;;13.12;53.47
67740;BME280;54536;50.090;14.420;2023-01-05T06:43:39;99148.09;;;13.12;53.81
67740;BME280;54536;50.090;14.420;2023-01-05T06:46:06;99157.47;;;12.98;52.75
67740;BME280;54536;50.090;14.420;2023-01-05T06:48:32;99158.97;;;13.09;52.75
67740;BME280;54536;50.090;14.420;2023-01-05T06:50:58;99164.47;;;13.16;52.27
67740;BME280;54536;50.090;14.420;2023-01-05T06:53:24;99166.59;;;13.12;52.61
67740;BME280;54536;50.090;14.420;2023-01-05T06:55:52;99168.75;;;13.17;51.90
67740;BME280;54536;50.090;14.420;2023-01-05T06:58:18;99169.22;;;13.12;51.50
67740;BME280;54536;50.090;14.420;2023-01-05T07:00:45;99175.84;;;13.16;51.58
67740;BME280;54536;50.090;14.420;2023-01-05T07:03:13;99174.66;;;13.10;50.83
67740;BME280;54536;50.090;14.420;2023-01-05T07:05:40;99177.28;;;13.10;50.75
67740;BME280;54536;50.090;14.420;2023-01-05T07:08:06;99172.19;;;13.09;51.24
67740;BME280;54536;50.090;14.420;2023-01-05T07:10:34;99178.97;;;13.11;50.55
67740;BME280;54536;50.090;14.420;2023-01-05T07:13:01;99179.09;;;13.10;50.77
67740;BME280;54536;50.090;14.420;2023-01-05T07:15:33;99172.31;;;13.07;50.62
67740;BME280;54536;50.090;14.420;2023-01-05T07:18:11;99171.50;;;13.07;50.73
67740;BME280;54536;50.090;14.420;2023-01-05T07:20:37;99188.03;;;13.09;50.67
67740;BME280;54536;50.090;14.420;2023-01-05T07:23:04;99191.28;;;13.03;50.13
67740;BME280;54536;50.090;14.420;2023-01-05T07:25:30;99200.75;;;13.13;50.01
67740;BME280;54536;50.090;14.420;2023-01-05T07:27:58;99202.88;;;13.10;50.51
67740;BME280;54536;50.090;14.420;2023-01-05T07:30:24;99203.03;;;13.08;49.91
67740;BME280;54536;50.090;14.420;2023-01-05T07:32:50;99207.44;;;13.00;50.83
67740;BME280;54536;50.090;14.420;2023-01-05T07:35:22;99208.72;;;12.96;50.07
67740;BME280;54536;50.090;14.420;2023-01-05T07:37:49;99208.78;;;13.04;50.26
67740;BME280;54536;50.090;14.420;2023-01-05T07:40:16;99223.16;;;13.09;50.11
67740;BME280;54536;50.090;14.420;2023-01-05T07:42:43;99222.13;;;13.02;50.48
67740;BME280;54536;50.090;14.420;2023-01-05T07:45:09;99218.81;;;13.00;50.31
67740;BME280;54536;50.090;14.420;2023-01-05T07:47:38;99223.16;;;13.09;50.95
67740;BME280;54536;50.090;14.420;2023-01-05T07:50:07;99231.81;;;12.94;50.56
67740;BME280;54536;50.090;14.420;2023-01-05T07:52:34;99238.91;;;12.93;50.92
67740;BME280;54536;50.090;14.420;2023-01-05T07:55:00;99222.06;;;12.94;51.48
67740;BME280;54536;50.090;14.420;2023-01-05T07:57:27;99231.28;;;12.90;50.59
67740;BME280;54536;50.090;14.420;2023-01-05T07:59:53;99239.59;;;12.95;51.96
67740;BME280;54536;50.090;14.420;2023-01-05T08:02:19;99241.72;;;12.92;51.49
67740;BME280;54536;50.090;14.420;2023-01-05T08:04:46;99240.50;;;12.86;51.49
67740;BME280;54536;50.090;14.420;2023-01-05T08:07:12;99257.69;;;12.90;51.36
67740;BME280;54536;50.090;14.420;2023-01-05T08:09:41;99244.66;;;12.88;51.63
67740;BME280;54536;50.090;14.420;2023-01-05T08:12:27;99256.03;;;12.89;51.00
67740;BME280;54536;50.090;14.420;2023-01-05T08:14:55;99255.88;;;12.91;51.23
67740;BME280;54536;50.090;14.420;2023-01-05T08:17:27;99244.88;;;12.77;51.61
67740;BME280;54536;50.090;14.420;2023-01-05T08:19:53;99250.03;;;12.79;51.42
67740;BME280;54536;50.090;14.420;2023-01-05T08:22:25;99255.63;;;12.76;51.39
67740;BME280;54536;50.090;14.420;2023-01-05T08:24:51;99247.09;;;12.82;52.40
67740;BME280;54536;50.090;14.420;2023-01-05T08:27:17;99264.34;;;12.76;51.96
67740;BME280;54536;50.090;14.420;2023-01-05T08:29:44;99261.84;;;12.75;51.62
67740;BME280;54536;50.090;14.420;2023-01-05T08:32:22;99265.00;;;12.78;51.70
67740;BME280;54536;50.090;14.420;2023-01-05T08:34:49;99278.19;;;12.96;51.55
67740;BME280;54536;50.090;14.420;2023-01-05T08:37:15;99265.47;;;12.74;51.44
67740;BME280;54536;50.090;14.420;2023-01-05T08:39:47;99268.50;;;12.79;50.84
67740;BME280;54536;50.090;14.420;2023-01-05T08:42:20;99273.31;;;12.83;51.41
67740;BME280;54536;50.090;14.420;2023-01-05T08:44:46;99267.84;;;12.85;51.23
67740;BME280;54536;50.090;14.420;2023-01-05T08:47:12;99278.50;;;12.93;50.96
67740;BME280;54536;50.090;14.420;2023-01-05T08:49:38;99274.50;;;12.89;51.10
67740;BME280;54536;50.090;14.420;2023-01-05T08:52:04;99281.81;;;12.95;50.93
67740;BME280;54536;50.090;14.420;2023-01-05T08:54:32;99279.69;;;12.99;50.70
67740;BME280;54536;50.090;14.420;2023-01-05T08:57:00;99289.94;;;13.02;50.30
67740;BME280;54536;50.090;14.420;2023-01-05T08:59:27;99296.19;;;13.01;51.32
67740;BME280;54536;50.090;14.420;2023-01-05T09:01:59;99297.56;;;13.05;50.78
67740;BME280;54536;50.090;14.420;2023-01-05T09:04:25;99304.91;;;13.19;51.02
67740;BME280;54536;50.090;14.420;2023-01-05T09:06:58;99307.69;;;13.18;51.67
67740;BME280;54536;50.090;14.420;2023-01-05T09:09:25;99308.97;;;13.13;50.23
67740;BME280;54536;50.090;14.420;2023-01-05T09:11:51;99316.53;;;13.26;50.59
67740;BME280;54536;50.090;14.420;2023-01-05T09:14:18;99327.16;;;13.34;50.48
67740;BME280;54536;50.090;14.420;2023-01-05T09:16:44;99323.06;;;13.22;49.87
67740;BME280;54536;50.090;14.420;2023-01-05T09:19:11;99332.56;;;13.33;50.19
67740;BME280;54536;50.090;14.420;2023-01-05T09:21:38;99339.97;;;13.29;49.84
67740;BME280;54536;50.090;14.420;2023-01-05T09:24:05;99346.41;;;13.27;50.01
67740;BME280;54536;50.090;14.420;2023-01-05T09:26:33;99339.06;;;13.21;49.96
67740;BME280;54536;50.090;14.420;2023-01-05T09:28:59;99348.72;;;13.30;50.10
67740;BME280;54536;50.090;14.420;2023-01-05T09:31:25;99346.41;;;13.27;50.30
67740;BME280;54536;50.090;14.420;2023-01-05T09:33:51;99358.47;;;13.29;49.68
67740;BME280;54536;50.090;14.420;2023-01-05T09:36:18;99365.78;;;13.35;49.61
67740;BME280;54536;50.090;14.420;2023-01-05T09:38:48;99370.56;;;13.40;50.25
67740;BME280;54536;50.090;14.420;2023-01-05T09:41:35;99367.81;;;13.42;49.56
67740;BME280;54536;50.090;14.420;2023-01-05T09:46:53;99369.13;;;13.46;49.80
67740;BME280;54536;50.090;14.420;2023-01-05T09:49:22;99364.66;;;13.38;49.78
67740;BME280;54536;50.090;14.420;2023-01-05T09:51:54;99361.91;;;13.48;49.82
67740;BME280;54536;50.090;14.420;2023-01-05T09:54:27;99367.19;;;13.48;49.04
67740;BME280;54536;50.090;14.420;2023-01-05T09:56:57;99371.66;;;13.47;49.32
67740;BME280;54536;50.090;14.420;2023-01-05T09:59:31;99371.84;;;13.54;48.71
67740;BME280;54536;50.090;14.420;2023-01-05T10:02:04;99369.75;;;13.66;49.22
67740;BME280;54536;50.090;14.420;2023-01-05T10:04:34;99357.47;;;13.56;49.12
67740;BME280;54536;50.090;14.420;2023-01-05T10:07:20;99360.00;;;13.40;49.87
67740;BME280;54536;50.090;14.420;2023-01-05T10:09:52;99364.03;;;13.44;48.95
67740;BME280;54536;50.090;14.420;2023-01-05T10:12:34;99360.69;;;13.42;48.86
67740;BME280;54536;50.090;14.420;2023-01-05T10:15:23;99364.56;;;13.56;48.98
67740;BME280;54536;50.090;14.420;2023-01-05T10:17:50;99362.31;;;13.61;48.96
67740;BME280;54536;50.090;14.420;2023-01-05T10:23:05;99350.84;;;13.52;48.45
67740;BME280;54536;50.090;14.420;2023-01-05T10:28:58;99359.34;;;13.64;48.86
67740;BME280;54536;50.090;14.420;2023-01-05T10:31:54;99351.56;;;13.63;48.86
67740;BME280;54536;50.090;14.420;2023-01-05T10:34:58;99350.50;;;13.81;49.74
67740;BME280;54536;50.090;14.420;2023-01-05T10:45:53;99358.94;;;13.77;48.94
67740;BME280;54536;50.090;14.420;2023-01-05T10:48:28;99355.28;;;13.78;48.96
67740;BME280;54536;50.090;14.420;2023-01-05T10:50:57;99362.03;;;13.72;49.70
67740;BME280;54536;50.090;14.420;2023-01-05T10:53:26;99357.69;;;13.63;48.99
67740;BME280;54536;50.090;14.420;2023-01-05T10:56:22;99368.09;;;13.65;49.20
67740;BME280;54536;50.090;14.420;2023-01-05T10:58:46;99349.41;;;13.58;49.52
67740;BME280;54536;50.090;14.420;2023-01-05T11:03:47;99358.56;;;13.72;49.01
67740;BME280;54536;50.090;14.420;2023-01-05T11:06:32;99361.56;;;13.77;48.94
67740;BME280;54536;50.090;14.420;2023-01-05T11:09:25;99366.53;;;13.80;48.26
67740;BME280;54536;50.090;14.420;2023-01-05T11:11:57;99363.72;;;13.81;48.63
67740;BME280;54536;50.090;14.420;2023-01-05T11:14:35;99375.50;;;13.87;48.32
67740;BME280;54536;50.090;14.420;2023-01-05T11:17:11;99376.19;;;13.97;47.86
67740;BME280;54536;50.090;14.420;2023-01-05T11:19:46;99386.66;;;14.15;47.16
67740;BME280;54536;50.090;14.420;2023-01-05T11:22:33;99383.25;;;14.23;46.51
67740;BME280;54536;50.090;14.420;2023-01-05T11:25:27;99378.16;;;14.29;46.06
67740;BME280;54536;50.090;14.420;2023-01-05T11:28:15;99375.00;;;14.34;45.90
67740;BME280;54536;50.090;14.420;2023-01-05T11:31:03;99376.97;;;14.24;45.98
67740;BME280;54536;50.090;14.420;2023-01-05T11:33:37;99376.00;;;14.41;45.56
67740;BME280;54536;50.090;14.420;2023-01-05T11:36:05;99403.47;;;14.40;45.51
67740;BME280;54536;50.090;14.420;2023-01-05T11:38:33;99389.75;;;14.45;45.40
67740;BME280;54536;50.090;14.420;2023-01-05T11:41:00;99381.88;;;14.53;45.19
67740;BME280;54536;50.090;14.420;2023-01-05T11:43:30;99372.72;;;14.39;45.25
67740;BME280;54536;50.090;14.420;2023-01-05T11:46:04;99386.59;;;14.33;44.80
67740;BME280;54536;50.090;14.420;2023-01-05T11:48:34;99391.06;;;14.41;45.74
67740;BME280;54536;50.090;14.420;2023-01-05T11:51:01;99398.31;;;14.31;45.42
67740;BME280;54536;50.090;14.420;2023-01-05T11:56:23;99393.53;;;14.34;45.48
67740;BME280;54536;50.090;14.420;2023-01-05T11:58:54;99399.97;;;14.32;45.13
67740;BME280;54536;50.090;14.420;2023-01-05T12:01:53;99409.22;;;14.27;45.16
67740;BME280;54536;50.090;14.420;2023-01-05T12:07:36;99399.69;;;14.43;45.02
67740;BME280;54536;50.090;14.420;2023-01-05T12:10:22;99406.44;;;14.37;45.59
67740;BME280;54536;50.090;14.420;2023-01-05T12:13:11;99399.19;;;14.39;45.80
67740;BME280;54536;50.090;14.420;2023-01-05T12:16:10;99394.66;;;14.23;46.32
67740;BME280;54536;50.090;14.420;2023-01-05T12:21:24;99400.41;;;14.19;45.86
67740;BME280;54536;50.090;14.420;2023-01-05T12:27:11;99398.47;;;14.29;46.09
67740;BME280;54536;50.090;14.420;2023-01-05T12:30:07;99402.78;;;14.38;45.92
67740;BME280;54536;50.090;14.420;2023-01-05T12:38:58;99408.09;;;14.38;45.37
67740;BME280;54536;50.090;14.420;2023-01-05T12:41:50;99405.06;;;14.25;45.08
67740;BME280;54536;50.090;14.420;2023-01-05T12:47:12;99392.38;;;14.37;45.53
67740;BME280;54536;50.090;14.420;2023-01-05T12:49:58;99397.38;;;14.48;45.80
67740;BME280;54536;50.090;14.420;2023-01-05T12:52:40;99399.88;;;14.49;45.49
67740;BME280;54536;50.090;14.420;2023-01-05T12:55:17;99399.19;;;14.39;46.09
67740;BME280;54536;50.090;14.420;2023-01-05T12:57:53;99400.22;;;14.55;46.45
67740;BME280;54536;50.090;14.420;2023-01-05T13:00:28;99405.72;;;14.69;46.22
67740;BME280;54536;50.090;14.420;2023-01-05T13:03:15;99405.06;;;14.59;45.60
67740;BME280;54536;50.090;14.420;2023-01-05T13:05:56;99404.06;;;14.60;46.07
67740;BME280;54536;50.090;14.420;2023-01-05T13:08:33;99417.19;;;14.44;45.61
67740;BME280;54536;50.090;14.420;2023-01-05T13:11:20;99413.56;;;14.45;45.39
67740;BME280;54536;50.090;14.420;2023-01-05T13:16:43;99420.78;;;14.26;44.97
67740;BME280;54536;50.090;14.420;2023-01-05T13:22:16;99424.59;;;14.32;45.18
67740;BME280;54536;50.090;14.420;2023-01-05T13:24:54;99429.38;;;14.28;45.42
67740;BME280;54536;50.090;14.420;2023-01-05T13:27:24;99432.38;;;14.34;44.69
67740;BME280;54536;50.090;14.420;2023-01-05T13:29:54;99430.72;;;14.33;44.95
67740;BME280;54536;50.090;14.420;2023-01-05T13:33:16;99423.63;;;14.33;45.13
67740;BME280;54536;50.090;14.420;2023-01-05T13:41:31;99433.19;;;14.34;45.73
67740;BME280;54536;50.090;14.420;2023-01-05T13:49:48;99433.06;;;14.44;45.51
67740;BME280;54536;50.090;14.420;2023-01-05T13:55:20;99430.56;;;14.34;47.12
67740;BME280;54536;50.090;14.420;2023-01-05T13:57:49;99436.97;;;14.23;47.24
67740;BME280;54536;50.090;14.420;2023-01-05T14:00:24;99450.03;;;14.25;47.78
67740;BME280;54536;50.090;14.420;2023-01-05T14:03:12;99443.19;;;14.14;47.27
67740;BME280;54536;50.090;14.420;2023-01-05T14:05:55;99456.94;;;14.18;48.07
67740;BME280;54536;50.090;14.420;2023-01-05T14:08:35;99445.25;;;14.28;48.29
67740;BME280;54536;50.090;14.420;2023-01-05T14:11:16;99468.31;;;14.10;49.05
67740;BME280;54536;50.090;14.420;2023-01-05T14:21:59;99470.75;;;14.03;50.30
67740;BME280;54536;50.090;14.420;2023-01-05T14:24:30;99479.31;;;13.97;49.91
67740;BME280;54536;50.090;14.420;2023-01-05T14:27:09;99490.22;;;14.02;49.23
67740;BME280;54536;50.090;14.420;2023-01-05T14:32:21;99486.34;;;13.89;48.58
67740;BME280;54536;50.090;14.420;2023-01-05T14:35:05;99485.09;;;13.75;48.27
67740;BME280;54536;50.090;14.420;2023-01-05T14:37:41;99495.88;;;13.81;48.38
67740;BME280;54536;50.090;14.420;2023-01-05T14:40:32;99498.44;;;13.91;49.85
67740;BME280;54536;50.090;14.420;2023-01-05T14:43:29;99499.03;;;13.85;50.26
67740;BME280;54536;50.090;14.420;2023-01-05T14:46:00;99531.41;;;13.61;51.84
67740;BME280;54536;50.090;14.420;2023-01-05T14:48:32;99527.41;;;13.57;53.33
67740;BME280;54536;50.090;14.420;2023-01-05T14:51:29;99531.50;;;13.51;53.58
67740;BME280;54536;50.090;14.420;2023-01-05T14:53:59;99525.22;;;13.52;53.98